EDDH

Hamburg Airport

Hamburg, Germany
TAF EDDH 162300Z 1700/1806 23015KT 9999 SCT012 BKN020 BECMG 1700/1701 BKN012 TEMPO 1700/1712 24015G25KT TEMPO 1700/1704 4000 DZRA BKN008 BECMG 1704/1706 BKN015 TEMPO 1706/1711 BKN012 PROB30 TEMPO 1712/1715 25020G30KT 4000 SHRA BKN012CB PROB30 TEMPO 1715/1722 28015G30KT 2500 SHSNRA BKN010CB BECMG 1723/1801 30008KT
Issued Valid From Valid To
Jan-16 @ 23:00 UTC
(6 hours ago)
Jan-17 @ 00:00 UTC
(5 hours ago)
Jan-18 @ 06:00 UTC
(-1 days ago)
Jan-17 @ 00:00 to Jan-18 @ 06:00
TAF EDDH 162300Z 1700/1806 23015KT 9999 SCT012 BKN020
Wind Visibility Clouds
230° at 15 knots 10,000+ meters
  • Scattered at 1,200' AGL
  • Broken at 2,000' AGL
Expired Click to View Jan-17 @ 00:00 to Jan-17 @ 04:00
BECMG 1700/1701 BKN012
Wind Visibility Clouds
230° at 15 knots 10,000+ meters
  • Broken at 1,200' AGL
Expired Click to View Jan-17 @ 00:00 to Jan-17 @ 04:00
TEMPO 1700/1704 4000 DZRA BKN008
Visibility Clouds Conditions
4,007 meters
  • Broken at 800' AGL
  • Drizzle
  • Rain
Temporary Jan-17 @ 00:00 to Jan-17 @ 12:00
TEMPO 1700/1704 4000 DZRA BKN008
Wind
240° at 15 knots
 Gusting to 25 knots
Becoming Jan-17 @ 04:00 to Jan-17 @ 23:00
BECMG 1704/1706 BKN015
Wind Visibility Clouds
230° at 15 knots 10,000+ meters
  • Broken at 1,500' AGL
Temporary Jan-17 @ 06:00 to Jan-17 @ 11:00
TEMPO 1706/1711 BKN012
Clouds
  • Broken at 1,200' AGL
Temporary  (Probability 30%) Jan-17 @ 12:00 to Jan-17 @ 15:00
PROB30 TEMPO 1712/1715 25020G30KT 4000 SHRA BKN012CB
Wind Visibility Clouds Conditions
250° at 20 knots
 Gusting to 30 knots
4,007 meters
  • Broken at 1,200' AGL
  • Rain
Temporary  (Probability 30%) Jan-17 @ 15:00 to Jan-17 @ 22:00
PROB30 TEMPO 1715/1722 28015G30KT 2500 SHSNRA BKN010CB
Wind Visibility Clouds Conditions
280° at 15 knots
 Gusting to 30 knots
2,494 meters
  • Broken at 1,000' AGL
  • Snow
  • Rain
Becoming Jan-17 @ 23:00 to Jan-18 @ 06:00
BECMG 1723/1801 30008KT
Wind Visibility Clouds
300° at 8 knots 10,000+ meters
  • Broken at 1,500' AGL
TAF EDDH 162300Z 1700/1806 23015KT 9999 SCT012 BKN020 BECMG 1700/1701 BKN012 TEMPO 1700/1712 24015G25KT TEMPO 1700/1704 4000 DZRA BKN008 BECMG 1704/1706 BKN015 TEMPO 1706/1711 BKN012 PROB30 TEMPO 1712/1715 25020G30KT 4000 SHRA BKN012CB PROB30 TEMPO 1715/1722 28015G30KT 2500 SHSNRA BKN010CB BECMG 1723/1801 30008KT
Issued Jan-16 @ 23:00 UTC
(6 hours ago)
Valid From Jan-17 @ 00:00 UTC
(5 hours ago)
Valid To Jan-18 @ 06:00 UTC
(-1 days ago)
Jan-17 @ 00:00 - Jan-18 @ 06:00
Wind Visibility
230° at 15 knots 10,000+ meters
Clouds
  • Scattered at 1,200' AGL
  • Broken at 2,000' AGL
Jan-17 @ 00:00 - Jan-17 @ 04:00
Wind Visibility
230° at 15 knots 10,000+ meters
Clouds
  • Broken at 1,200' AGL
Jan-17 @ 00:00 - Jan-17 @ 04:00
Clouds
  • Broken at 800' AGL
Conditions
  • Drizzle
  • Rain
Temporary Jan-17 @ 00:00 - Jan-17 @ 12:00
Wind
240° at 15 knots
 Gusting to 25 knots
Becoming Jan-17 @ 04:00 - Jan-17 @ 23:00
Wind Visibility
230° at 15 knots 10,000+ meters
Clouds
  • Broken at 1,500' AGL
Temporary Jan-17 @ 06:00 - Jan-17 @ 11:00
Clouds
  • Broken at 1,200' AGL
Probability 30% Temporary Jan-17 @ 12:00 - Jan-17 @ 15:00
Wind Visibility
250° at 20 knots
 Gusting to 30 knots
4,007 meters
Clouds
  • Broken at 1,200' AGL
Conditions
  • Rain
Probability 30% Temporary Jan-17 @ 15:00 - Jan-17 @ 22:00
Wind Visibility
280° at 15 knots
 Gusting to 30 knots
2,494 meters
Clouds
  • Broken at 1,000' AGL
Conditions
  • Snow
  • Rain
Becoming Jan-17 @ 23:00 - Jan-18 @ 06:00
Wind Visibility
300° at 8 knots 10,000+ meters
Clouds
  • Broken at 1,500' AGL